Time;durP1;ratioP1;P1;durP2;ratioP2;P2;SDS_P1;SDS_P2;PMS_P1;PMS_P2;Temp;Humidity;BMP_temperature;BMP_pressure;BME280_temperature;BME280_humidity;BME280_pressure;Samples;Min_cycle;Max_cycle;Signal;HPM_P1;HPM_P2
2021/03/17 00:01:29;;;;;;;16.67;5.77;;;4.60;99.90;;;;;;4986284;28;20756;-52
2021/03/17 00:03:57;;;;;;;9.23;5.80;;;4.60;99.90;;;;;;4986458;28;20763;-55
2021/03/17 00:06:26;;;;;;;10.13;5.73;;;4.60;99.90;;;;;;4989234;28;20458;-53
2021/03/17 00:08:54;;;;;;;8.17;4.70;;;4.50;99.90;;;;;;4989723;28;20842;-52
2021/03/17 00:11:23;;;;;;;8.40;4.80;;;4.50;99.90;;;;;;4989351;28;20866;-56
2021/03/17 00:13:52;;;;;;;9.63;5.07;;;4.50;99.90;;;;;;4988607;28;20834;-56
2021/03/17 00:16:21;;;;;;;11.00;6.57;;;4.50;99.90;;;;;;4988989;28;20791;-54
2021/03/17 00:18:51;;;;;;;8.60;5.30;;;4.50;99.90;;;;;;4989179;28;20458;-53
2021/03/17 00:21:21;;;;;;;13.07;6.17;;;4.50;99.90;;;;;;4971667;28;20774;-56
2021/03/17 00:23:49;;;;;;;8.33;5.23;;;4.50;99.90;;;;;;4989185;28;20469;-53
2021/03/17 00:26:18;;;;;;;8.10;5.17;;;4.50;99.90;;;;;;4980669;28;20490;-54
2021/03/17 00:41:44;;;;;;;12.20;6.00;;;4.40;99.90;;;;;;5010117;23;20554;-54
2021/03/17 06:37:19;;;;;;;16.80;8.43;;;3.50;99.90;;;;;;4973777;28;20540;-56
2021/03/17 06:39:46;;;;;;;19.97;9.20;;;3.60;99.90;;;;;;4965679;28;20451;-52
2021/03/17 06:42:14;;;;;;;19.83;9.27;;;3.60;99.90;;;;;;4973159;28;20510;-55
2021/03/17 06:44:42;;;;;;;15.27;8.93;;;3.60;99.90;;;;;;4965753;28;21029;-56
2021/03/17 06:47:21;;;;;;;15.83;9.70;;;3.60;99.90;;;;;;4962241;28;21097;-57
2021/03/17 06:49:52;;;;;;;14.90;10.00;;;3.70;99.90;;;;;;4962742;28;20547;-54
2021/03/17 06:52:34;;;;;;;14.50;8.97;;;3.70;99.90;;;;;;4942778;29;20869;-52
2021/03/17 06:55:14;;;;;;;19.90;10.63;;;3.90;99.90;;;;;;4964623;28;20961;-55
2021/03/17 06:57:45;;;;;;;19.60;10.40;;;4.00;99.90;;;;;;4969860;29;20447;-52
2021/03/17 07:00:31;;;;;;;22.80;11.47;;;4.10;99.90;;;;;;4969378;29;20519;-50
2021/03/17 07:03:01;;;;;;;21.73;10.30;;;4.10;99.90;;;;;;4969979;29;20461;-52
2021/03/17 07:05:35;;;;;;;17.37;9.40;;;4.10;99.90;;;;;;4956106;28;20452;-49
2021/03/17 07:08:06;;;;;;;20.03;10.73;;;4.10;99.90;;;;;;4949557;29;20460;-52
2021/03/17 07:10:37;;;;;;;25.80;11.50;;;4.10;99.90;;;;;;4961455;28;20467;-51
2021/03/17 07:13:09;;;;;;;17.73;10.40;;;4.10;99.90;;;;;;4969302;29;20805;-53
2021/03/17 07:15:38;;;;;;;20.87;12.30;;;4.10;99.90;;;;;;4965677;29;20960;-53
2021/03/17 07:18:20;;;;;;;21.70;11.87;;;4.20;99.90;;;;;;4971287;29;20885;-55
2021/03/17 07:20:51;;;;;;;21.73;10.73;;;4.30;99.90;;;;;;4959865;29;20895;-55
2021/03/17 07:23:36;;;;;;;17.87;10.53;;;4.40;99.90;;;;;;4956189;29;20463;-51
2021/03/17 07:26:17;;;;;;;24.00;10.70;;;4.60;99.90;;;;;;4952330;29;20452;-50
2021/03/17 07:29:04;;;;;;;15.33;10.00;;;4.70;99.90;;;;;;4970206;29;20943;-54
2021/03/17 07:31:34;;;;;;;19.40;9.77;;;4.70;99.90;;;;;;4962074;29;20789;-54
2021/03/17 07:34:14;;;;;;;19.70;10.40;;;4.70;99.90;;;;;;4951254;29;20467;-52
2021/03/17 07:36:46;;;;;;;22.40;10.90;;;4.70;99.90;;;;;;4957046;28;20935;-50
2021/03/17 07:39:21;;;;;;;18.77;10.73;;;4.70;99.90;;;;;;4949144;28;20476;-48
2021/03/17 07:41:52;;;;;;;18.40;9.70;;;4.80;99.90;;;;;;4944308;29;20815;-55
2021/03/17 07:44:21;;;;;;;16.77;10.50;;;4.80;99.90;;;;;;4943964;29;20524;-54
2021/03/17 07:46:51;;;;;;;20.53;11.10;;;4.90;99.90;;;;;;4942471;29;20970;-52
2021/03/17 07:49:20;;;;;;;20.60;12.27;;;5.00;99.90;;;;;;4942860;29;20468;-50
2021/03/17 07:51:51;;;;;;;20.90;9.97;;;5.00;99.90;;;;;;4943493;29;20484;-50
2021/03/17 07:54:27;;;;;;;23.70;11.13;;;5.10;99.90;;;;;;4943524;29;20441;-55
2021/03/17 07:56:57;;;;;;;25.50;12.67;;;5.20;99.90;;;;;;4943031;29;20829;-51
2021/03/17 07:59:25;;;;;;;21.90;11.30;;;5.30;99.90;;;;;;4942436;29;20460;-49
2021/03/17 08:01:55;;;;;;;17.63;12.17;;;5.30;99.90;;;;;;4943672;29;20868;-50
2021/03/17 08:04:27;;;;;;;22.83;12.43;;;5.30;99.90;;;;;;4958405;28;20782;-51
2021/03/17 08:06:57;;;;;;;29.53;11.83;;;5.30;99.90;;;;;;4962958;29;20456;-54
2021/03/17 08:09:28;;;;;;;18.40;10.63;;;5.30;99.90;;;;;;4952707;28;20478;-50
2021/03/17 08:11:58;;;;;;;20.13;10.30;;;5.30;99.90;;;;;;4961609;29;20961;-52
2021/03/17 08:14:27;;;;;;;23.90;11.50;;;5.30;99.90;;;;;;4960283;29;20978;-56
2021/03/17 08:16:55;;;;;;;15.90;9.20;;;5.40;99.90;;;;;;4964720;28;20566;-51
2021/03/17 08:19:25;;;;;;;19.13;11.57;;;5.40;99.90;;;;;;4966722;28;20791;-54
2021/03/17 08:21:56;;;;;;;22.70;10.47;;;5.40;99.90;;;;;;4967885;29;20462;-53
2021/03/17 08:24:43;;;;;;;20.87;9.40;;;5.40;99.90;;;;;;4968152;28;20947;-51
2021/03/17 08:27:23;;;;;;;21.97;10.50;;;5.30;99.90;;;;;;4968586;28;20454;-52
2021/03/17 08:30:02;;;;;;;15.30;8.60;;;5.30;99.90;;;;;;4967848;29;20455;-50
2021/03/17 08:32:57;;;;;;;18.33;8.30;;;5.30;99.90;;;;;;4967625;29;20638;-55
2021/03/17 08:35:46;;;;;;;23.80;9.93;;;5.30;99.90;;;;;;4967417;29;20980;-54
2021/03/17 08:38:15;;;;;;;21.60;8.97;;;5.30;99.90;;;;;;4967546;28;20782;-53
2021/03/17 08:40:50;;;;;;;18.33;9.87;;;5.30;99.90;;;;;;4967021;29;20780;-52
2021/03/17 08:43:43;;;;;;;19.63;9.80;;;5.30;99.90;;;;;;4966749;28;20540;-56
2021/03/17 08:46:12;;;;;;;18.97;9.30;;;5.40;99.90;;;;;;4958777;28;20499;-55
2021/03/17 08:49:00;;;;;;;18.90;9.57;;;5.50;99.90;;;;;;4966267;29;20785;-55
2021/03/17 08:52:07;;;;;;;16.23;8.30;;;5.60;99.90;;;;;;4966842;28;20743;-55
2021/03/17 08:55:03;;;;;;;19.47;9.53;;;5.70;99.90;;;;;;4966061;29;20463;-50
2021/03/17 08:57:59;;;;;;;20.73;8.30;;;5.80;99.90;;;;;;4965894;28;20479;-52
2021/03/17 09:00:59;;;;;;;15.13;8.87;;;5.80;99.90;;;;;;4965778;28;20762;-51
2021/03/17 09:03:45;;;;;;;12.33;7.87;;;5.90;99.90;;;;;;4967567;28;20870;-54
2021/03/17 09:06:25;;;;;;;15.30;8.63;;;5.80;99.90;;;;;;4966449;29;20450;-51
2021/03/17 09:09:06;;;;;;;25.33;11.40;;;5.90;99.90;;;;;;4967194;29;20843;-51
2021/03/17 09:11:58;;;;;;;21.93;13.10;;;5.90;99.90;;;;;;4965996;29;20487;-51
2021/03/17 09:14:33;;;;;;;17.00;9.40;;;5.90;99.90;;;;;;4966284;29;20885;-55
2021/03/17 09:17:32;;;;;;;15.20;10.07;;;6.00;99.90;;;;;;4965833;28;20803;-53
2021/03/17 09:20:34;;;;;;;17.17;9.07;;;5.90;99.90;;;;;;4966747;29;20452;-54
2021/03/17 09:23:11;;;;;;;15.10;9.67;;;5.90;99.90;;;;;;4966258;29;20466;-50
2021/03/17 09:25:48;;;;;;;16.87;9.07;;;5.90;99.90;;;;;;4966023;29;20941;-55
2021/03/17 09:28:23;;;;;;;16.27;8.53;;;6.00;99.90;;;;;;4965714;29;20523;-49
2021/03/17 09:30:56;;;;;;;19.83;9.33;;;6.00;99.90;;;;;;4965744;28;20790;-52
2021/03/17 09:33:26;;;;;;;23.77;10.90;;;6.00;99.90;;;;;;4965761;28;20800;-55
2021/03/17 09:35:58;;;;;;;16.93;8.67;;;6.00;99.90;;;;;;4965390;29;20857;-54
2021/03/17 09:38:28;;;;;;;24.07;9.90;;;6.10;99.90;;;;;;4964981;28;20484;-53
2021/03/17 09:41:03;;;;;;;19.20;10.57;;;6.20;99.90;;;;;;4965524;29;20836;-54
2021/03/17 09:43:37;;;;;;;17.90;9.00;;;6.40;99.90;;;;;;4965358;29;20815;-50
2021/03/17 09:46:25;;;;;;;15.93;10.00;;;6.50;99.90;;;;;;4965661;29;20913;-53
2021/03/17 09:48:56;;;;;;;15.63;10.40;;;6.60;99.90;;;;;;4964975;29;20460;-54
2021/03/17 09:51:27;;;;;;;17.17;10.10;;;6.60;99.90;;;;;;4965008;28;20447;-54
2021/03/17 09:53:58;;;;;;;20.20;10.17;;;6.60;99.90;;;;;;4963989;29;20806;-53
2021/03/17 09:56:39;;;;;;;14.10;10.60;;;6.70;99.90;;;;;;4963754;28;20901;-51
2021/03/17 09:59:18;;;;;;;14.77;8.47;;;6.80;99.90;;;;;;4963307;28;20829;-54
2021/03/17 10:01:56;;;;;;;16.20;8.20;;;6.90;99.90;;;;;;4963612;29;20562;-53
2021/03/17 10:04:25;;;;;;;13.40;8.43;;;7.00;99.90;;;;;;4963252;29;20471;-55
2021/03/17 10:06:54;;;;;;;19.27;9.90;;;7.10;99.90;;;;;;4963805;29;20522;-55
2021/03/17 10:09:25;;;;;;;16.03;8.40;;;7.30;99.90;;;;;;4963105;29;20793;-55
2021/03/17 10:12:01;;;;;;;16.57;10.03;;;7.40;99.90;;;;;;4963355;29;20852;-51
2021/03/17 10:14:30;;;;;;;13.77;8.60;;;7.50;99.90;;;;;;4963105;29;20785;-50
2021/03/17 10:17:02;;;;;;;13.57;9.23;;;7.60;99.90;;;;;;4962950;29;20451;-53
2021/03/17 10:19:31;;;;;;;11.23;7.60;;;7.40;99.90;;;;;;4963553;29;20959;-53
2021/03/17 10:22:00;;;;;;;15.03;8.10;;;7.20;99.90;;;;;;4963769;29;20899;-47
2021/03/17 10:24:37;;;;;;;16.10;9.20;;;7.20;99.90;;;;;;4963430;29;20799;-52
2021/03/17 10:27:08;;;;;;;21.73;8.93;;;7.20;99.90;;;;;;5152460;23;20850;-53
2021/03/17 10:29:37;;;;;;;13.17;7.63;;;7.30;99.90;;;;;;4974034;23;20829;-52
2021/03/17 10:32:08;;;;;;;18.60;7.90;;;7.40;99.90;;;;;;4963324;29;20799;-53
2021/03/17 10:34:38;;;;;;;17.63;9.30;;;7.50;99.90;;;;;;4962955;29;20470;-51
2021/03/17 10:37:11;;;;;;;14.77;9.00;;;7.60;99.90;;;;;;4961955;29;20471;-49
2021/03/17 10:39:40;;;;;;;12.97;8.47;;;7.70;99.90;;;;;;4962154;29;20804;-52
2021/03/17 10:42:20;;;;;;;12.53;7.50;;;7.60;99.90;;;;;;4961984;29;20762;-52
2021/03/17 10:45:04;;;;;;;17.60;7.30;;;7.50;99.90;;;;;;4961991;29;20825;-50
2021/03/17 10:47:34;;;;;;;14.80;7.73;;;7.50;99.90;;;;;;4963121;29;20959;-51
2021/03/17 10:50:04;;;;;;;9.67;6.90;;;7.30;99.90;;;;;;4962335;28;20782;-51
2021/03/17 10:52:37;;;;;;;15.90;7.63;;;7.20;99.90;;;;;;4962360;29;20820;-54
2021/03/17 10:55:14;;;;;;;10.83;7.67;;;7.20;99.90;;;;;;4962327;29;20976;-53
2021/03/17 10:57:43;;;;;;;13.60;7.47;;;7.20;99.90;;;;;;4962804;29;20462;-54
2021/03/17 11:00:29;;;;;;;18.90;6.83;;;7.30;99.90;;;;;;4962093;29;20812;-54
2021/03/17 11:02:59;;;;;;;11.97;7.00;;;7.40;99.90;;;;;;4961835;29;20797;-51
2021/03/17 11:05:34;;;;;;;10.07;5.47;;;7.40;99.90;;;;;;4962233;29;20841;-50
2021/03/17 11:08:07;;;;;;;9.73;5.53;;;7.50;99.90;;;;;;4961845;29;20766;-50
2021/03/17 11:10:46;;;;;;;8.27;5.87;;;7.60;99.90;;;;;;4961667;29;20778;-51
2021/03/17 11:13:42;;;;;;;11.03;6.00;;;7.60;99.90;;;;;;4961366;29;20471;-52
2021/03/17 11:16:13;;;;;;;11.87;7.27;;;7.50;99.90;;;;;;4962123;29;21020;-52
2021/03/17 11:18:50;;;;;;;16.00;7.63;;;7.40;99.90;;;;;;4962384;29;20869;-54
2021/03/17 11:21:23;;;;;;;11.93;6.90;;;7.10;99.90;;;;;;4961576;29;20928;-53
2021/03/17 11:23:53;;;;;;;12.70;7.57;;;7.00;99.90;;;;;;4961608;29;20772;-50
2021/03/17 11:26:25;;;;;;;11.43;6.77;;;6.90;99.90;;;;;;4962033;29;20793;-53
2021/03/17 11:28:54;;;;;;;12.80;7.00;;;6.80;99.90;;;;;;4950047;29;20853;-49
2021/03/17 11:31:31;;;;;;;10.00;7.90;;;6.80;99.90;;;;;;4942462;29;20793;-52
2021/03/17 11:34:02;;;;;;;10.10;6.50;;;6.80;99.90;;;;;;4942528;29;20492;-52
2021/03/17 11:36:31;;;;;;;12.00;6.03;;;6.90;99.90;;;;;;4943068;29;20523;-52
2021/03/17 11:39:03;;;;;;;15.13;7.80;;;6.90;99.90;;;;;;4943097;29;20615;-51
2021/03/17 11:41:33;;;;;;;8.33;5.60;;;6.90;99.90;;;;;;4943199;29;20468;-50
2021/03/17 11:44:02;;;;;;;8.33;5.93;;;7.00;99.90;;;;;;4942779;29;20786;-50
2021/03/17 11:46:31;;;;;;;10.30;6.33;;;7.00;99.90;;;;;;4942271;29;20452;-49
2021/03/17 11:49:01;;;;;;;9.27;5.87;;;7.10;99.90;;;;;;4942476;29;20456;-48
2021/03/17 11:51:29;;;;;;;8.83;5.80;;;7.10;99.90;;;;;;4941730;29;20461;-55
2021/03/17 11:53:58;;;;;;;9.80;6.13;;;7.10;99.90;;;;;;4942095;29;20520;-53
2021/03/17 11:56:27;;;;;;;8.63;5.47;;;7.10;99.90;;;;;;4942741;29;20545;-50
2021/03/17 11:58:56;;;;;;;10.93;6.53;;;7.10;99.90;;;;;;4943119;29;20910;-54
2021/03/17 12:01:27;;;;;;;13.73;6.93;;;7.10;99.90;;;;;;4944229;29;20804;-56
2021/03/17 12:03:59;;;;;;;11.93;6.90;;;7.10;99.90;;;;;;4945878;29;20456;-54
2021/03/17 12:06:28;;;;;;;13.43;6.40;;;7.10;99.90;;;;;;4945772;29;20500;-51
2021/03/17 12:08:58;;;;;;;8.53;5.30;;;7.20;99.90;;;;;;4945407;29;20576;-53
2021/03/17 12:11:28;;;;;;;10.80;5.87;;;7.30;99.90;;;;;;4945952;29;20476;-52
2021/03/17 12:13:57;;;;;;;15.40;9.73;;;7.40;99.90;;;;;;4945564;29;21208;-53
2021/03/17 12:16:28;;;;;;;14.33;8.53;;;7.40;99.90;;;;;;4945225;29;20906;-49
2021/03/17 12:18:57;;;;;;;9.57;6.20;;;7.50;99.90;;;;;;4945093;29;20804;-52
2021/03/17 12:21:27;;;;;;;8.17;5.90;;;7.50;99.90;;;;;;4944407;29;20887;-52
2021/03/17 12:23:55;;;;;;;6.53;4.23;;;7.60;99.90;;;;;;4944647;29;20461;-53
2021/03/17 12:26:24;;;;;;;9.63;6.30;;;7.50;99.90;;;;;;4944442;29;20547;-52
2021/03/17 12:28:53;;;;;;;8.70;5.87;;;7.50;99.90;;;;;;4944937;29;20992;-54
2021/03/17 12:31:21;;;;;;;11.20;4.90;;;7.50;99.90;;;;;;4944420;29;20783;-52
2021/03/17 12:33:49;;;;;;;8.37;4.60;;;7.50;99.90;;;;;;4945573;29;20484;-46
2021/03/17 12:36:18;;;;;;;9.60;5.43;;;7.50;99.90;;;;;;4948192;29;20915;-48
2021/03/17 12:38:47;;;;;;;8.93;4.53;;;7.50;99.90;;;;;;4947035;29;20902;-45
2021/03/17 12:41:16;;;;;;;7.23;4.77;;;7.50;99.90;;;;;;4947288;29;20778;-47
2021/03/17 12:43:46;;;;;;;8.83;3.97;;;7.60;99.90;;;;;;4947141;29;20902;-46
2021/03/17 12:46:15;;;;;;;8.00;5.47;;;7.60;99.90;;;;;;4947480;29;20461;-49
2021/03/17 12:48:43;;;;;;;6.40;4.00;;;7.70;99.90;;;;;;4947362;29;20763;-47
2021/03/17 12:51:12;;;;;;;7.23;4.33;;;7.80;99.90;;;;;;4947944;29;20456;-43
2021/03/17 12:53:40;;;;;;;5.90;4.33;;;7.70;99.90;;;;;;4948030;29;20762;-45
2021/03/17 12:56:11;;;;;;;9.97;4.30;;;7.60;99.90;;;;;;4948994;29;20800;-48
2021/03/17 12:58:42;;;;;;;9.63;4.20;;;7.40;99.90;;;;;;4949531;29;20455;-47
2021/03/17 13:01:10;;;;;;;6.50;3.60;;;7.20;99.90;;;;;;4948792;29;20987;-45
2021/03/17 13:03:43;;;;;;;9.10;4.67;;;7.10;99.90;;;;;;4948742;29;20891;-49
2021/03/17 13:06:12;;;;;;;6.73;4.60;;;7.00;99.90;;;;;;4947996;29;20465;-44
2021/03/17 13:08:40;;;;;;;7.67;4.80;;;6.90;99.90;;;;;;4947790;29;20492;-51
2021/03/17 13:11:10;;;;;;;6.80;5.10;;;6.90;99.90;;;;;;4948416;29;20794;-46
2021/03/17 13:13:39;;;;;;;7.73;4.80;;;7.00;99.90;;;;;;4947621;29;20476;-49
2021/03/17 13:16:08;;;;;;;6.30;4.47;;;7.10;99.90;;;;;;4947386;29;20465;-49
2021/03/17 13:18:38;;;;;;;6.83;4.30;;;7.40;99.90;;;;;;4946578;29;20783;-46
2021/03/17 13:21:07;;;;;;;8.50;5.00;;;7.60;99.90;;;;;;4946905;29;20808;-45
2021/03/17 13:23:35;;;;;;;7.20;4.17;;;7.80;99.90;;;;;;4945903;29;20440;-50
2021/03/17 13:26:03;;;;;;;11.27;4.77;;;8.10;99.90;;;;;;4945714;29;20481;-47
2021/03/17 13:28:33;;;;;;;10.17;5.03;;;8.30;99.90;;;;;;4945545;29;20795;-47
2021/03/17 13:31:02;;;;;;;4.63;2.57;;;8.40;99.90;;;;;;4944796;29;20771;-49
2021/03/17 13:33:32;;;;;;;3.50;2.40;;;8.40;99.90;;;;;;4944439;29;20829;-45
2021/03/17 13:36:01;;;;;;;7.73;2.53;;;8.20;99.90;;;;;;4945690;29;20774;-45
2021/03/17 13:38:30;;;;;;;4.07;3.00;;;8.00;99.90;;;;;;4946007;29;20829;-47
2021/03/17 13:40:58;;;;;;;4.67;2.77;;;7.60;99.90;;;;;;4946800;29;20826;-47
2021/03/17 13:43:27;;;;;;;1.97;1.60;;;7.30;99.90;;;;;;4947973;29;20718;-46
2021/03/17 13:45:57;;;;;;;6.73;2.17;;;6.90;99.90;;;;;;4948085;29;20764;-47
2021/03/17 13:48:26;;;;;;;5.00;2.83;;;6.70;99.90;;;;;;4947977;29;20829;-46
2021/03/17 13:50:54;;;;;;;3.83;2.77;;;6.50;99.90;;;;;;4947713;29;20802;-44
2021/03/17 13:53:23;;;;;;;3.03;1.90;;;6.30;99.90;;;;;;4949467;29;21004;-49
2021/03/17 13:55:51;;;;;;;3.00;1.80;;;6.20;99.90;;;;;;4948637;29;20465;-47
2021/03/17 13:58:21;;;;;;;4.27;1.40;;;6.10;99.90;;;;;;4949064;29;20889;-47
2021/03/17 14:00:49;;;;;;;2.30;1.50;;;6.10;99.90;;;;;;4948774;29;20444;-47
2021/03/17 14:03:19;;;;;;;7.90;1.77;;;6.00;99.90;;;;;;4948840;29;20717;-46
2021/03/17 14:05:48;;;;;;;1.87;1.20;;;6.00;99.90;;;;;;4949218;29;20762;-48
2021/03/17 14:08:17;;;;;;;2.90;1.63;;;6.00;99.90;;;;;;4949375;29;20771;-46
2021/03/17 14:10:45;;;;;;;2.40;1.20;;;6.00;99.90;;;;;;4948404;29;20547;-45
2021/03/17 14:13:14;;;;;;;2.50;1.73;;;6.00;99.90;;;;;;4949235;29;20552;-45
2021/03/17 14:15:43;;;;;;;2.80;1.20;;;6.10;99.90;;;;;;4949450;29;20591;-49
2021/03/17 14:18:12;;;;;;;1.83;1.40;;;6.10;99.90;;;;;;4949215;29;20829;-47
2021/03/17 14:20:42;;;;;;;1.63;1.20;;;6.20;99.90;;;;;;4948849;29;20456;-47
2021/03/17 14:23:11;;;;;;;2.73;1.63;;;6.30;99.90;;;;;;4948152;29;20468;-46
2021/03/17 14:25:41;;;;;;;2.07;1.47;;;6.30;99.90;;;;;;4948827;29;20822;-47
2021/03/17 14:28:10;;;;;;;6.07;2.47;;;6.40;99.90;;;;;;4947112;29;20974;-46
2021/03/17 14:30:40;;;;;;;4.00;1.67;;;6.70;99.90;;;;;;4946365;29;20856;-46
2021/03/17 14:33:10;;;;;;;2.67;1.80;;;7.00;99.90;;;;;;4946017;29;20553;-46
2021/03/17 14:35:38;;;;;;;6.70;1.30;;;7.10;99.90;;;;;;4946501;29;20907;-46
2021/03/17 14:38:08;;;;;;;2.73;1.90;;;7.10;99.90;;;;;;4946191;29;20456;-45
2021/03/17 14:40:40;;;;;;;2.37;1.50;;;7.00;99.90;;;;;;4947212;29;20478;-50
2021/03/17 14:43:09;;;;;;;3.70;1.70;;;7.00;99.90;;;;;;4946063;29;20831;-47
2021/03/17 14:45:39;;;;;;;3.30;1.90;;;7.00;99.90;;;;;;4946572;29;20859;-49
2021/03/17 14:48:08;;;;;;;2.10;1.53;;;7.10;99.90;;;;;;4946364;29;20786;-50
2021/03/17 14:50:37;;;;;;;2.77;1.77;;;7.20;99.90;;;;;;4946632;29;20460;-51
2021/03/17 14:53:08;;;;;;;3.13;1.97;;;7.20;99.90;;;;;;4945394;29;20482;-44
2021/03/17 14:55:37;;;;;;;1.97;1.57;;;7.20;99.90;;;;;;4946105;29;20441;-45
2021/03/17 14:58:06;;;;;;;3.83;2.13;;;7.20;99.90;;;;;;4945386;29;20862;-47
2021/03/17 15:00:35;;;;;;;2.27;1.50;;;7.10;99.90;;;;;;4945675;29;20825;-49
2021/03/17 15:03:03;;;;;;;2.50;1.70;;;7.10;99.90;;;;;;4945781;29;20524;-47
2021/03/17 15:05:32;;;;;;;3.13;1.93;;;7.20;99.90;;;;;;4945311;29;20826;-48
2021/03/17 15:08:01;;;;;;;2.67;2.07;;;7.30;99.90;;;;;;4945069;29;20854;-45
2021/03/17 15:10:32;;;;;;;3.50;2.00;;;7.40;99.90;;;;;;4945204;29;20830;-44
2021/03/17 15:13:01;;;;;;;2.67;1.77;;;7.60;99.90;;;;;;4944825;29;20472;-44
2021/03/17 15:15:29;;;;;;;4.80;2.07;;;7.80;99.90;;;;;;4945328;29;20785;-46
2021/03/17 15:17:59;;;;;;;3.87;2.10;;;7.70;99.90;;;;;;4944199;29;20855;-44
2021/03/17 15:20:28;;;;;;;2.13;1.50;;;7.90;99.90;;;;;;4944195;29;20503;-50
2021/03/17 15:22:56;;;;;;;2.40;2.07;;;8.00;99.90;;;;;;4944228;29;20794;-50
2021/03/17 15:25:25;;;;;;;1.63;1.43;;;8.10;99.90;;;;;;4944585;29;20477;-46
2021/03/17 15:27:55;;;;;;;4.40;1.90;;;8.10;99.90;;;;;;4892268;29;1490222;-48
2021/03/17 15:30:24;;;;;;;3.43;3.13;;;8.10;99.90;;;;;;4943836;29;20572;-48
2021/03/17 15:32:52;;;;;;;4.13;2.10;;;8.20;99.90;;;;;;4944668;29;20485;-49
2021/03/17 15:35:22;;;;;;;2.90;1.87;;;8.20;99.90;;;;;;4944570;29;20764;-44
2021/03/17 15:37:51;;;;;;;3.00;2.23;;;8.10;99.90;;;;;;4947908;29;20918;-47
2021/03/17 15:40:19;;;;;;;2.67;1.90;;;8.10;99.90;;;;;;4947778;29;20782;-47
2021/03/17 15:42:47;;;;;;;7.87;2.73;;;8.00;99.90;;;;;;4947957;29;20795;-48
2021/03/17 15:45:19;;;;;;;2.87;2.30;;;7.90;99.90;;;;;;4947587;29;20456;-44
2021/03/17 15:47:48;;;;;;;6.67;2.93;;;7.80;99.90;;;;;;4947621;29;20779;-45
2021/03/17 15:50:19;;;;;;;6.37;2.90;;;7.70;99.90;;;;;;4947045;29;20925;-51
2021/03/17 15:52:49;;;;;;;2.63;2.00;;;7.70;99.90;;;;;;4948124;29;20900;-45
2021/03/17 15:55:18;;;;;;;6.80;2.33;;;7.70;99.90;;;;;;4949028;29;20774;-45
2021/03/17 15:57:47;;;;;;;2.47;2.10;;;7.60;99.90;;;;;;4948578;29;20818;-45
2021/03/17 16:00:19;;;;;;;4.20;2.70;;;7.50;99.90;;;;;;4948722;29;21011;-45
2021/03/17 16:02:48;;;;;;;3.90;2.50;;;7.50;99.90;;;;;;4948041;29;20797;-44
2021/03/17 16:05:16;;;;;;;4.40;2.47;;;7.50;99.90;;;;;;4947901;29;20467;-43
2021/03/17 16:07:45;;;;;;;4.43;2.67;;;7.40;99.90;;;;;;4948409;29;20467;-46
2021/03/17 16:10:15;;;;;;;5.07;3.07;;;7.40;99.90;;;;;;4947978;29;20516;-45
2021/03/17 16:12:46;;;;;;;4.63;2.40;;;7.30;99.90;;;;;;4947374;29;20819;-46
2021/03/17 16:15:16;;;;;;;3.20;2.60;;;7.20;99.90;;;;;;4948138;29;20453;-47
2021/03/17 16:17:45;;;;;;;5.83;3.90;;;7.20;99.90;;;;;;4948325;29;20771;-47
2021/03/17 16:20:16;;;;;;;4.17;2.67;;;7.10;99.90;;;;;;4947737;29;20945;-46
2021/03/17 16:22:45;;;;;;;4.03;2.93;;;7.00;99.90;;;;;;4947897;29;20792;-48
2021/03/17 16:25:15;;;;;;;3.30;2.80;;;7.00;99.90;;;;;;4948304;29;20456;-46
2021/03/17 16:27:43;;;;;;;4.53;2.97;;;7.00;99.90;;;;;;4947857;29;20464;-43
2021/03/17 16:30:14;;;;;;;3.60;2.60;;;6.90;99.90;;;;;;4948054;29;20806;-44
2021/03/17 16:32:45;;;;;;;3.00;2.43;;;6.90;99.90;;;;;;4948443;29;20653;-46
2021/03/17 16:35:14;;;;;;;4.87;2.97;;;6.90;99.90;;;;;;4949099;29;20798;-44
2021/03/17 16:37:43;;;;;;;6.03;2.93;;;6.90;99.90;;;;;;4948998;29;20881;-45
2021/03/17 16:40:13;;;;;;;3.47;2.27;;;6.80;99.90;;;;;;4948950;29;20464;-46
2021/03/17 16:42:42;;;;;;;4.80;2.90;;;6.70;99.90;;;;;;4950072;29;20785;-47
2021/03/17 16:45:14;;;;;;;2.73;2.23;;;6.60;99.90;;;;;;4949915;29;20468;-45
2021/03/17 16:47:44;;;;;;;3.93;2.30;;;6.60;99.90;;;;;;4949449;29;20459;-49
2021/03/17 16:50:17;;;;;;;5.43;2.70;;;6.50;99.90;;;;;;4949493;29;20467;-49
2021/03/17 16:52:46;;;;;;;3.47;2.83;;;6.40;99.90;;;;;;4949062;29;20491;-47
2021/03/17 16:55:15;;;;;;;5.37;2.20;;;6.50;99.90;;;;;;4949108;29;20818;-45
2021/03/17 16:57:43;;;;;;;3.40;1.90;;;6.40;99.90;;;;;;4949026;29;20779;-46
2021/03/17 17:00:16;;;;;;;4.13;2.10;;;6.40;99.90;;;;;;4948815;29;20799;-48
2021/03/17 17:02:46;;;;;;;3.57;2.00;;;6.40;99.90;;;;;;4949192;29;20472;-48
2021/03/17 17:05:16;;;;;;;2.53;1.83;;;6.40;99.90;;;;;;4948478;29;20453;-46
2021/03/17 17:07:46;;;;;;;2.43;1.57;;;6.40;99.90;;;;;;4949316;29;20794;-45
2021/03/17 17:10:16;;;;;;;3.00;1.77;;;6.40;99.90;;;;;;4949301;29;20480;-50
2021/03/17 17:12:45;;;;;;;6.07;2.57;;;6.30;99.90;;;;;;4948676;29;20544;-49
2021/03/17 17:15:15;;;;;;;3.03;2.53;;;6.30;99.90;;;;;;4949723;29;20463;-46
2021/03/17 17:17:46;;;;;;;3.10;2.00;;;6.30;99.90;;;;;;4949377;29;20488;-49
2021/03/17 17:20:16;;;;;;;3.10;2.20;;;6.20;99.90;;;;;;4949209;29;20651;-44
2021/03/17 17:22:45;;;;;;;4.63;2.07;;;6.20;99.90;;;;;;4948992;29;20440;-44
2021/03/17 17:25:15;;;;;;;3.97;2.37;;;6.20;99.90;;;;;;4949409;29;20520;-47
2021/03/17 17:27:46;;;;;;;3.00;2.20;;;6.20;99.90;;;;;;4948334;29;20859;-50
2021/03/17 17:30:21;;;;;;;3.60;1.63;;;6.10;99.90;;;;;;4948550;29;20452;-51
2021/03/17 17:32:52;;;;;;;2.97;2.37;;;6.10;99.90;;;;;;4949106;29;20529;-45
2021/03/17 17:35:21;;;;;;;4.20;2.60;;;6.10;99.90;;;;;;4948904;29;20886;-51
2021/03/17 17:37:50;;;;;;;3.43;2.20;;;6.00;99.90;;;;;;4948832;29;20900;-49
2021/03/17 17:40:20;;;;;;;2.17;1.97;;;6.00;99.90;;;;;;4949543;29;20792;-49
2021/03/17 17:42:49;;;;;;;2.67;2.27;;;6.00;99.90;;;;;;4949288;29;20941;-46
2021/03/17 17:45:18;;;;;;;3.30;1.83;;;6.00;99.90;;;;;;4948826;29;20453;-46
2021/03/17 17:47:47;;;;;;;6.30;2.40;;;5.90;99.90;;;;;;4948525;29;20833;-46
2021/03/17 17:50:18;;;;;;;2.13;1.90;;;5.90;99.90;;;;;;4948479;29;20452;-46
2021/03/17 17:52:48;;;;;;;2.27;1.43;;;5.90;99.90;;;;;;4948510;29;20480;-45
2021/03/17 17:55:18;;;;;;;4.03;1.93;;;5.80;99.90;;;;;;4949531;29;20841;-46
2021/03/17 17:57:48;;;;;;;6.43;2.70;;;5.80;99.90;;;;;;4948374;29;20476;-46
2021/03/17 18:00:18;;;;;;;5.63;2.17;;;5.80;99.90;;;;;;4948734;29;20452;-45
2021/03/17 18:02:47;;;;;;;4.53;2.70;;;5.80;99.90;;;;;;4949280;29;20848;-46
2021/03/17 18:05:18;;;;;;;3.53;2.37;;;5.80;99.90;;;;;;4949957;29;20916;-47
2021/03/17 18:07:48;;;;;;;4.20;2.43;;;5.80;99.90;;;;;;4950187;29;20457;-48
2021/03/17 18:10:18;;;;;;;6.07;2.77;;;5.70;99.90;;;;;;4950053;29;20650;-46
2021/03/17 18:12:47;;;;;;;3.73;2.80;;;5.70;99.90;;;;;;4949591;29;20476;-49
2021/03/17 18:15:18;;;;;;;7.90;2.43;;;5.70;99.90;;;;;;4949365;29;21000;-45
2021/03/17 18:17:49;;;;;;;2.80;1.80;;;5.70;99.90;;;;;;4949289;29;20935;-47
2021/03/17 18:20:22;;;;;;;6.20;2.70;;;5.70;99.90;;;;;;4948992;29;20460;-46
2021/03/17 18:22:51;;;;;;;4.07;2.50;;;5.70;99.90;;;;;;4949794;29;20755;-48
2021/03/17 18:25:20;;;;;;;3.57;2.47;;;5.70;99.90;;;;;;4950172;29;20938;-47
2021/03/17 18:27:50;;;;;;;5.07;2.53;;;5.70;99.90;;;;;;4950037;29;20472;-50
2021/03/17 18:30:23;;;;;;;5.50;2.33;;;5.60;99.90;;;;;;4949882;29;20453;-48
2021/03/17 18:32:52;;;;;;;5.63;3.00;;;5.60;99.90;;;;;;4949962;29;20968;-46
2021/03/17 18:35:25;;;;;;;3.47;2.90;;;5.50;99.90;;;;;;4949454;29;20797;-50
2021/03/17 18:37:55;;;;;;;9.00;2.47;;;5.50;99.90;;;;;;4949051;29;20771;-52
2021/03/17 18:40:26;;;;;;;4.73;2.27;;;5.50;99.90;;;;;;4949430;29;20925;-48
2021/03/17 18:42:55;;;;;;;3.73;2.40;;;5.50;99.90;;;;;;4949212;29;20469;-48
2021/03/17 18:45:26;;;;;;;3.37;2.00;;;5.50;99.90;;;;;;4949556;29;20796;-49
2021/03/17 18:47:56;;;;;;;3.40;1.80;;;5.40;99.90;;;;;;4949283;29;21032;-44
2021/03/17 18:50:29;;;;;;;3.73;2.00;;;5.40;99.90;;;;;;4950535;29;20429;-45
2021/03/17 18:52:59;;;;;;;2.83;2.43;;;5.30;99.90;;;;;;4948720;29;20536;-51
2021/03/17 18:55:29;;;;;;;3.10;2.30;;;5.30;99.90;;;;;;4949182;29;20494;-52
2021/03/17 18:57:58;;;;;;;4.20;2.70;;;5.30;99.90;;;;;;4948434;29;20457;-50
2021/03/17 19:00:29;;;;;;;4.13;2.20;;;5.30;99.90;;;;;;4946268;29;20448;-51
2021/03/17 19:02:57;;;;;;;5.67;2.73;;;5.40;99.90;;;;;;4924254;29;20903;-57
2021/03/17 19:05:28;;;;;;;5.63;3.57;;;5.40;99.90;;;;;;4935641;29;20453;-53
2021/03/17 19:07:56;;;;;;;2.60;2.10;;;5.40;99.90;;;;;;4922961;29;20875;-54
2021/03/17 19:10:25;;;;;;;4.20;2.40;;;5.30;99.90;;;;;;4930900;29;20484;-53
2021/03/17 19:12:55;;;;;;;4.20;2.20;;;5.30;99.90;;;;;;4931895;29;20549;-54
2021/03/17 19:15:25;;;;;;;4.17;3.10;;;5.20;99.90;;;;;;4929544;29;20774;-55
2021/03/17 19:17:55;;;;;;;3.37;2.60;;;5.20;99.90;;;;;;4930689;29;20461;-54
2021/03/17 19:20:25;;;;;;;2.60;2.40;;;5.10;99.90;;;;;;4931008;29;20449;-56